sensor_id;sensor_type;location;lat;lon;timestamp;temperature;humidity
15259;DHT22;34462;51.368;12.364;2022-07-10T00:01:07;15.10;99.90
15259;DHT22;34462;51.368;12.364;2022-07-10T00:03:36;15.00;99.90
15259;DHT22;34462;51.368;12.364;2022-07-10T00:06:04;15.10;99.90
15259;DHT22;34462;51.368;12.364;2022-07-10T00:08:33;15.10;99.90
15259;DHT22;34462;51.368;12.364;2022-07-10T00:11:02;15.10;99.90
15259;DHT22;34462;51.368;12.364;2022-07-10T00:13:31;15.10;99.90
15259;DHT22;34462;51.368;12.364;2022-07-10T00:16:00;15.20;99.90
15259;DHT22;34462;51.368;12.364;2022-07-10T00:18:28;15.10;99.90
15259;DHT22;34462;51.368;12.364;2022-07-10T00:20:57;15.20;99.90
15259;DHT22;34462;51.368;12.364;2022-07-10T00:23:25;15.10;99.90
15259;DHT22;34462;51.368;12.364;2022-07-10T00:25:53;15.20;99.90
15259;DHT22;34462;51.368;12.364;2022-07-10T00:28:21;15.20;99.90
15259;DHT22;34462;51.368;12.364;2022-07-10T00:30:51;15.20;99.90
15259;DHT22;34462;51.368;12.364;2022-07-10T00:33:19;15.10;99.90
15259;DHT22;34462;51.368;12.364;2022-07-10T00:35:47;15.20;99.90
15259;DHT22;34462;51.368;12.364;2022-07-10T00:38:15;15.10;99.90
15259;DHT22;34462;51.368;12.364;2022-07-10T00:40:43;15.10;99.90
15259;DHT22;34462;51.368;12.364;2022-07-10T00:43:11;15.10;99.90
15259;DHT22;34462;51.368;12.364;2022-07-10T00:45:40;15.20;99.90
15259;DHT22;34462;51.368;12.364;2022-07-10T00:48:09;15.10;99.90
15259;DHT22;34462;51.368;12.364;2022-07-10T00:50:37;15.00;99.90
15259;DHT22;34462;51.368;12.364;2022-07-10T00:53:06;15.00;99.90
15259;DHT22;34462;51.368;12.364;2022-07-10T00:55:35;14.90;99.90
15259;DHT22;34462;51.368;12.364;2022-07-10T00:58:05;14.90;99.90
15259;DHT22;34462;51.368;12.364;2022-07-10T01:00:35;14.90;99.90
15259;DHT22;34462;51.368;12.364;2022-07-10T01:03:05;14.90;99.90
15259;DHT22;34462;51.368;12.364;2022-07-10T01:05:34;14.90;99.90
15259;DHT22;34462;51.368;12.364;2022-07-10T01:08:04;14.90;99.90
15259;DHT22;34462;51.368;12.364;2022-07-10T01:10:32;14.90;99.90
15259;DHT22;34462;51.368;12.364;2022-07-10T01:13:01;15.00;99.90
15259;DHT22;34462;51.368;12.364;2022-07-10T01:15:30;15.00;99.90
15259;DHT22;34462;51.368;12.364;2022-07-10T01:17:59;15.00;99.90
15259;DHT22;34462;51.368;12.364;2022-07-10T01:20:30;15.00;99.90
15259;DHT22;34462;51.368;12.364;2022-07-10T01:23:01;15.00;99.90
15259;DHT22;34462;51.368;12.364;2022-07-10T01:25:29;14.90;99.90
15259;DHT22;34462;51.368;12.364;2022-07-10T01:27:57;14.90;99.90
15259;DHT22;34462;51.368;12.364;2022-07-10T01:30:26;14.80;99.90
15259;DHT22;34462;51.368;12.364;2022-07-10T01:32:55;14.80;99.90
15259;DHT22;34462;51.368;12.364;2022-07-10T01:35:23;14.80;99.90
15259;DHT22;34462;51.368;12.364;2022-07-10T01:37:51;14.80;99.90
15259;DHT22;34462;51.368;12.364;2022-07-10T01:40:21;14.80;99.90
15259;DHT22;34462;51.368;12.364;2022-07-10T01:42:49;14.70;99.90
15259;DHT22;34462;51.368;12.364;2022-07-10T01:45:17;14.80;99.90
15259;DHT22;34462;51.368;12.364;2022-07-10T01:47:45;14.80;99.90
15259;DHT22;34462;51.368;12.364;2022-07-10T01:50:13;14.80;99.90
15259;DHT22;34462;51.368;12.364;2022-07-10T01:52:42;14.80;99.90
15259;DHT22;34462;51.368;12.364;2022-07-10T01:55:10;14.80;99.90
15259;DHT22;34462;51.368;12.364;2022-07-10T01:57:39;14.80;99.90
15259;DHT22;34462;51.368;12.364;2022-07-10T02:00:09;14.80;99.90
15259;DHT22;34462;51.368;12.364;2022-07-10T02:02:37;14.80;99.90
15259;DHT22;34462;51.368;12.364;2022-07-10T02:05:06;14.80;99.90
15259;DHT22;34462;51.368;12.364;2022-07-10T02:07:34;14.70;99.90
15259;DHT22;34462;51.368;12.364;2022-07-10T02:10:02;14.80;99.90
15259;DHT22;34462;51.368;12.364;2022-07-10T02:12:30;14.80;99.90
15259;DHT22;34462;51.368;12.364;2022-07-10T02:15:00;14.80;99.90
15259;DHT22;34462;51.368;12.364;2022-07-10T02:17:28;14.80;99.90
15259;DHT22;34462;51.368;12.364;2022-07-10T02:19:56;14.70;99.90
15259;DHT22;34462;51.368;12.364;2022-07-10T02:22:25;14.70;99.90
15259;DHT22;34462;51.368;12.364;2022-07-10T02:24:53;14.70;99.90
15259;DHT22;34462;51.368;12.364;2022-07-10T02:27:21;14.60;99.90
15259;DHT22;34462;51.368;12.364;2022-07-10T02:29:50;14.60;99.90
15259;DHT22;34462;51.368;12.364;2022-07-10T02:32:19;14.60;99.90
15259;DHT22;34462;51.368;12.364;2022-07-10T02:34:48;14.60;99.90
15259;DHT22;34462;51.368;12.364;2022-07-10T02:37:16;14.60;99.90
15259;DHT22;34462;51.368;12.364;2022-07-10T02:39:45;14.50;99.90
15259;DHT22;34462;51.368;12.364;2022-07-10T02:42:13;14.60;99.90
15259;DHT22;34462;51.368;12.364;2022-07-10T02:44:41;14.60;99.90
15259;DHT22;34462;51.368;12.364;2022-07-10T02:47:09;14.50;99.90
15259;DHT22;34462;51.368;12.364;2022-07-10T02:49:38;14.50;99.90
15259;DHT22;34462;51.368;12.364;2022-07-10T02:52:07;14.50;99.90
15259;DHT22;34462;51.368;12.364;2022-07-10T02:54:36;14.60;99.90
15259;DHT22;34462;51.368;12.364;2022-07-10T02:57:05;14.60;99.90
15259;DHT22;34462;51.368;12.364;2022-07-10T02:59:33;14.60;99.90
15259;DHT22;34462;51.368;12.364;2022-07-10T03:02:03;14.50;99.90
15259;DHT22;34462;51.368;12.364;2022-07-10T03:04:31;14.50;99.90
15259;DHT22;34462;51.368;12.364;2022-07-10T03:07:01;14.50;99.90
15259;DHT22;34462;51.368;12.364;2022-07-10T03:09:30;14.50;99.90
15259;DHT22;34462;51.368;12.364;2022-07-10T03:11:58;14.40;99.90
15259;DHT22;34462;51.368;12.364;2022-07-10T03:14:27;14.40;99.90
15259;DHT22;34462;51.368;12.364;2022-07-10T03:16:55;14.50;99.90
15259;DHT22;34462;51.368;12.364;2022-07-10T03:19:23;14.40;99.90
15259;DHT22;34462;51.368;12.364;2022-07-10T03:21:51;14.40;99.90
15259;DHT22;34462;51.368;12.364;2022-07-10T03:24:21;14.40;99.90
15259;DHT22;34462;51.368;12.364;2022-07-10T03:26:49;14.40;99.90
15259;DHT22;34462;51.368;12.364;2022-07-10T03:29:17;14.50;99.90
15259;DHT22;34462;51.368;12.364;2022-07-10T03:31:48;14.50;99.90
15259;DHT22;34462;51.368;12.364;2022-07-10T03:34:17;14.50;99.90
15259;DHT22;34462;51.368;12.364;2022-07-10T03:36:45;14.50;99.90
15259;DHT22;34462;51.368;12.364;2022-07-10T03:39:13;14.60;99.90
15259;DHT22;34462;51.368;12.364;2022-07-10T03:41:42;14.50;99.90
15259;DHT22;34462;51.368;12.364;2022-07-10T03:44:10;14.50;99.90
15259;DHT22;34462;51.368;12.364;2022-07-10T03:46:39;14.70;99.90
15259;DHT22;34462;51.368;12.364;2022-07-10T03:49:07;14.60;99.90
15259;DHT22;34462;51.368;12.364;2022-07-10T03:51:35;14.60;99.90
15259;DHT22;34462;51.368;12.364;2022-07-10T03:54:03;14.50;99.90
15259;DHT22;34462;51.368;12.364;2022-07-10T03:56:31;14.50;99.90
15259;DHT22;34462;51.368;12.364;2022-07-10T03:59:19;14.50;99.90
15259;DHT22;34462;51.368;12.364;2022-07-10T04:01:47;14.50;99.90
15259;DHT22;34462;51.368;12.364;2022-07-10T04:04:15;14.60;99.90
15259;DHT22;34462;51.368;12.364;2022-07-10T04:06:43;14.60;99.90
15259;DHT22;34462;51.368;12.364;2022-07-10T04:09:11;14.70;99.90
15259;DHT22;34462;51.368;12.364;2022-07-10T04:11:39;14.70;99.90
15259;DHT22;34462;51.368;12.364;2022-07-10T04:14:07;14.70;99.90
15259;DHT22;34462;51.368;12.364;2022-07-10T04:16:37;14.70;99.90
15259;DHT22;34462;51.368;12.364;2022-07-10T04:19:05;14.70;99.90
15259;DHT22;34462;51.368;12.364;2022-07-10T04:21:33;14.70;99.90
15259;DHT22;34462;51.368;12.364;2022-07-10T04:24:01;14.70;99.90
15259;DHT22;34462;51.368;12.364;2022-07-10T04:26:32;14.70;99.90
15259;DHT22;34462;51.368;12.364;2022-07-10T04:29:01;14.70;99.90
15259;DHT22;34462;51.368;12.364;2022-07-10T04:31:29;14.70;99.90
15259;DHT22;34462;51.368;12.364;2022-07-10T04:33:59;14.70;99.90
15259;DHT22;34462;51.368;12.364;2022-07-10T04:36:27;14.70;99.90
15259;DHT22;34462;51.368;12.364;2022-07-10T04:38:57;14.70;99.90
15259;DHT22;34462;51.368;12.364;2022-07-10T04:41:25;14.70;99.90
15259;DHT22;34462;51.368;12.364;2022-07-10T04:43:53;14.70;99.90
15259;DHT22;34462;51.368;12.364;2022-07-10T04:46:21;14.60;99.90
15259;DHT22;34462;51.368;12.364;2022-07-10T04:48:49;14.70;99.90
15259;DHT22;34462;51.368;12.364;2022-07-10T04:51:19;14.60;99.90
15259;DHT22;34462;51.368;12.364;2022-07-10T04:53:47;14.50;99.90
15259;DHT22;34462;51.368;12.364;2022-07-10T04:56:16;14.50;99.90
15259;DHT22;34462;51.368;12.364;2022-07-10T04:58:44;14.50;99.90
15259;DHT22;34462;51.368;12.364;2022-07-10T05:01:18;14.40;99.90
15259;DHT22;34462;51.368;12.364;2022-07-10T05:03:46;14.50;99.90
15259;DHT22;34462;51.368;12.364;2022-07-10T05:06:15;14.50;99.90
15259;DHT22;34462;51.368;12.364;2022-07-10T05:08:44;14.50;99.90
15259;DHT22;34462;51.368;12.364;2022-07-10T05:11:12;14.60;99.90
15259;DHT22;34462;51.368;12.364;2022-07-10T05:13:41;14.60;99.90
15259;DHT22;34462;51.368;12.364;2022-07-10T05:16:12;14.60;99.90
15259;DHT22;34462;51.368;12.364;2022-07-10T05:18:46;14.60;99.90
15259;DHT22;34462;51.368;12.364;2022-07-10T05:21:15;14.60;99.90
15259;DHT22;34462;51.368;12.364;2022-07-10T05:23:44;14.60;99.90
15259;DHT22;34462;51.368;12.364;2022-07-10T05:26:13;14.60;99.90
15259;DHT22;34462;51.368;12.364;2022-07-10T05:28:41;14.60;99.90
15259;DHT22;34462;51.368;12.364;2022-07-10T05:31:09;14.70;99.90
15259;DHT22;34462;51.368;12.364;2022-07-10T05:33:37;14.70;99.90
15259;DHT22;34462;51.368;12.364;2022-07-10T05:36:07;14.70;99.90
15259;DHT22;34462;51.368;12.364;2022-07-10T05:38:35;14.50;99.90
15259;DHT22;34462;51.368;12.364;2022-07-10T05:41:05;14.40;99.90
15259;DHT22;34462;51.368;12.364;2022-07-10T05:43:34;14.30;99.90
15259;DHT22;34462;51.368;12.364;2022-07-10T05:46:02;14.10;99.90
15259;DHT22;34462;51.368;12.364;2022-07-10T05:48:32;14.00;99.90
15259;DHT22;34462;51.368;12.364;2022-07-10T05:51:01;13.90;99.90
15259;DHT22;34462;51.368;12.364;2022-07-10T05:53:49;13.90;99.90
15259;DHT22;34462;51.368;12.364;2022-07-10T05:56:19;13.90;99.90
15259;DHT22;34462;51.368;12.364;2022-07-10T05:58:47;13.90;99.90
15259;DHT22;34462;51.368;12.364;2022-07-10T06:01:16;13.90;99.90
15259;DHT22;34462;51.368;12.364;2022-07-10T06:03:44;13.80;99.90
15259;DHT22;34462;51.368;12.364;2022-07-10T06:06:13;13.80;99.90
15259;DHT22;34462;51.368;12.364;2022-07-10T06:08:42;13.70;99.90
15259;DHT22;34462;51.368;12.364;2022-07-10T06:11:12;13.50;99.90
15259;DHT22;34462;51.368;12.364;2022-07-10T06:13:42;13.40;99.90
15259;DHT22;34462;51.368;12.364;2022-07-10T06:16:10;13.40;99.90
15259;DHT22;34462;51.368;12.364;2022-07-10T06:18:38;13.30;99.90
15259;DHT22;34462;51.368;12.364;2022-07-10T06:21:07;13.40;99.90
15259;DHT22;34462;51.368;12.364;2022-07-10T06:23:35;13.40;99.90
15259;DHT22;34462;51.368;12.364;2022-07-10T06:26:04;13.40;99.90
15259;DHT22;34462;51.368;12.364;2022-07-10T06:28:34;13.50;99.90
15259;DHT22;34462;51.368;12.364;2022-07-10T06:31:04;13.60;99.90
15259;DHT22;34462;51.368;12.364;2022-07-10T06:33:33;13.60;99.90
15259;DHT22;34462;51.368;12.364;2022-07-10T06:36:02;13.70;99.90
15259;DHT22;34462;51.368;12.364;2022-07-10T06:38:30;13.80;99.90
15259;DHT22;34462;51.368;12.364;2022-07-10T06:40:59;13.90;99.90
15259;DHT22;34462;51.368;12.364;2022-07-10T06:43:27;14.10;99.90
15259;DHT22;34462;51.368;12.364;2022-07-10T06:45:55;14.30;99.90
15259;DHT22;34462;51.368;12.364;2022-07-10T06:48:27;14.50;99.90
15259;DHT22;34462;51.368;12.364;2022-07-10T06:50:54;14.70;99.90
15259;DHT22;34462;51.368;12.364;2022-07-10T06:53:23;15.00;99.90
15259;DHT22;34462;51.368;12.364;2022-07-10T06:55:53;15.30;99.90
15259;DHT22;34462;51.368;12.364;2022-07-10T06:58:22;15.50;99.90
15259;DHT22;34462;51.368;12.364;2022-07-10T07:00:50;15.60;99.90
15259;DHT22;34462;51.368;12.364;2022-07-10T07:03:18;15.70;99.90
15259;DHT22;34462;51.368;12.364;2022-07-10T07:05:48;15.80;99.90
15259;DHT22;34462;51.368;12.364;2022-07-10T07:08:16;15.90;99.90
15259;DHT22;34462;51.368;12.364;2022-07-10T07:10:44;16.10;99.90
15259;DHT22;34462;51.368;12.364;2022-07-10T07:13:12;16.30;99.90
15259;DHT22;34462;51.368;12.364;2022-07-10T07:15:40;16.60;99.90
15259;DHT22;34462;51.368;12.364;2022-07-10T07:18:15;16.60;99.90
15259;DHT22;34462;51.368;12.364;2022-07-10T07:20:43;16.70;99.90
15259;DHT22;34462;51.368;12.364;2022-07-10T07:23:30;16.60;99.90
15259;DHT22;34462;51.368;12.364;2022-07-10T07:25:58;16.60;99.90
15259;DHT22;34462;51.368;12.364;2022-07-10T07:28:27;16.60;99.90
15259;DHT22;34462;51.368;12.364;2022-07-10T07:30:55;16.60;99.90
15259;DHT22;34462;51.368;12.364;2022-07-10T07:33:26;16.50;99.90
15259;DHT22;34462;51.368;12.364;2022-07-10T07:35:54;16.30;99.90
15259;DHT22;34462;51.368;12.364;2022-07-10T07:38:22;16.10;99.90
15259;DHT22;34462;51.368;12.364;2022-07-10T07:40:52;15.90;99.90
15259;DHT22;34462;51.368;12.364;2022-07-10T07:43:20;15.90;99.90
15259;DHT22;34462;51.368;12.364;2022-07-10T07:45:48;15.80;99.90
15259;DHT22;34462;51.368;12.364;2022-07-10T07:48:16;15.80;99.90
15259;DHT22;34462;51.368;12.364;2022-07-10T07:50:44;15.90;99.90
15259;DHT22;34462;51.368;12.364;2022-07-10T07:53:12;16.20;99.90
15259;DHT22;34462;51.368;12.364;2022-07-10T07:55:40;16.50;99.90
15259;DHT22;34462;51.368;12.364;2022-07-10T07:58:10;16.90;99.90
15259;DHT22;34462;51.368;12.364;2022-07-10T08:00:38;17.20;99.90
15259;DHT22;34462;51.368;12.364;2022-07-10T08:03:06;17.50;99.90
15259;DHT22;34462;51.368;12.364;2022-07-10T08:05:35;17.70;99.90
15259;DHT22;34462;51.368;12.364;2022-07-10T08:08:03;17.70;99.90
15259;DHT22;34462;51.368;12.364;2022-07-10T08:10:35;17.70;99.90
15259;DHT22;34462;51.368;12.364;2022-07-10T08:13:12;17.70;99.90
15259;DHT22;34462;51.368;12.364;2022-07-10T08:15:40;17.50;99.90
15259;DHT22;34462;51.368;12.364;2022-07-10T08:18:08;17.30;99.90
15259;DHT22;34462;51.368;12.364;2022-07-10T08:20:36;17.30;99.90
15259;DHT22;34462;51.368;12.364;2022-07-10T08:23:04;17.20;99.90
15259;DHT22;34462;51.368;12.364;2022-07-10T08:25:33;17.40;99.90
15259;DHT22;34462;51.368;12.364;2022-07-10T08:28:02;17.60;99.90
15259;DHT22;34462;51.368;12.364;2022-07-10T08:30:33;17.80;99.90
15259;DHT22;34462;51.368;12.364;2022-07-10T08:33:02;18.20;99.90
15259;DHT22;34462;51.368;12.364;2022-07-10T08:35:30;18.40;99.90
15259;DHT22;34462;51.368;12.364;2022-07-10T08:37:58;18.60;99.90
15259;DHT22;34462;51.368;12.364;2022-07-10T08:40:34;18.30;99.90
15259;DHT22;34462;51.368;12.364;2022-07-10T08:43:03;18.40;99.90
15259;DHT22;34462;51.368;12.364;2022-07-10T08:45:33;18.60;99.90
15259;DHT22;34462;51.368;12.364;2022-07-10T08:48:02;18.70;99.90
15259;DHT22;34462;51.368;12.364;2022-07-10T08:50:33;18.70;99.90
15259;DHT22;34462;51.368;12.364;2022-07-10T08:53:09;18.90;99.90
15259;DHT22;34462;51.368;12.364;2022-07-10T08:55:43;18.70;99.90
15259;DHT22;34462;51.368;12.364;2022-07-10T08:58:12;18.50;99.90
15259;DHT22;34462;51.368;12.364;2022-07-10T09:00:42;18.20;99.90
15259;DHT22;34462;51.368;12.364;2022-07-10T09:03:10;18.10;99.90
15259;DHT22;34462;51.368;12.364;2022-07-10T09:05:38;18.00;99.90
15259;DHT22;34462;51.368;12.364;2022-07-10T09:08:21;18.10;99.90
15259;DHT22;34462;51.368;12.364;2022-07-10T09:10:50;18.30;99.90
15259;DHT22;34462;51.368;12.364;2022-07-10T09:13:18;18.70;99.90
15259;DHT22;34462;51.368;12.364;2022-07-10T09:15:50;18.90;99.90
15259;DHT22;34462;51.368;12.364;2022-07-10T09:18:23;19.00;99.90
15259;DHT22;34462;51.368;12.364;2022-07-10T09:20:52;18.80;99.90
15259;DHT22;34462;51.368;12.364;2022-07-10T09:23:22;18.70;99.90
15259;DHT22;34462;51.368;12.364;2022-07-10T09:25:52;18.40;99.90
15259;DHT22;34462;51.368;12.364;2022-07-10T09:28:21;18.10;99.90
15259;DHT22;34462;51.368;12.364;2022-07-10T09:30:52;17.90;99.90
15259;DHT22;34462;51.368;12.364;2022-07-10T09:33:22;17.80;99.90
15259;DHT22;34462;51.368;12.364;2022-07-10T09:36:01;17.80;99.90
15259;DHT22;34462;51.368;12.364;2022-07-10T09:38:50;17.80;99.90
15259;DHT22;34462;51.368;12.364;2022-07-10T09:41:28;17.90;99.90
15259;DHT22;34462;51.368;12.364;2022-07-10T09:43:58;18.00;99.90
15259;DHT22;34462;51.368;12.364;2022-07-10T09:46:32;18.30;99.90
15259;DHT22;34462;51.368;12.364;2022-07-10T09:49:06;18.60;99.90
15259;DHT22;34462;51.368;12.364;2022-07-10T09:51:39;18.80;99.90
15259;DHT22;34462;51.368;12.364;2022-07-10T09:54:15;18.80;99.90
15259;DHT22;34462;51.368;12.364;2022-07-10T09:56:47;18.70;99.90
15259;DHT22;34462;51.368;12.364;2022-07-10T09:59:19;18.60;99.90
15259;DHT22;34462;51.368;12.364;2022-07-10T10:01:51;18.50;99.90
15259;DHT22;34462;51.368;12.364;2022-07-10T10:04:22;18.60;99.90
15259;DHT22;34462;51.368;12.364;2022-07-10T10:06:52;18.90;99.90
15259;DHT22;34462;51.368;12.364;2022-07-10T10:09:26;18.90;99.90
15259;DHT22;34462;51.368;12.364;2022-07-10T10:12:06;19.00;99.90
15259;DHT22;34462;51.368;12.364;2022-07-10T10:14:38;19.00;99.90
15259;DHT22;34462;51.368;12.364;2022-07-10T10:17:10;18.90;99.90
15259;DHT22;34462;51.368;12.364;2022-07-10T10:19:40;18.80;99.90
15259;DHT22;34462;51.368;12.364;2022-07-10T10:22:27;18.60;99.90
15259;DHT22;34462;51.368;12.364;2022-07-10T10:24:59;18.20;99.90
15259;DHT22;34462;51.368;12.364;2022-07-10T10:27:28;18.00;99.90
15259;DHT22;34462;51.368;12.364;2022-07-10T10:29:57;17.80;99.90
15259;DHT22;34462;51.368;12.364;2022-07-10T10:32:28;17.80;99.90
15259;DHT22;34462;51.368;12.364;2022-07-10T10:34:56;17.80;99.90
15259;DHT22;34462;51.368;12.364;2022-07-10T10:37:33;17.80;99.90
15259;DHT22;34462;51.368;12.364;2022-07-10T10:40:04;17.90;99.90
15259;DHT22;34462;51.368;12.364;2022-07-10T10:42:35;18.20;99.90
15259;DHT22;34462;51.368;12.364;2022-07-10T10:45:23;18.40;99.90
15259;DHT22;34462;51.368;12.364;2022-07-10T10:47:59;18.80;99.90
15259;DHT22;34462;51.368;12.364;2022-07-10T10:50:50;19.10;99.90
15259;DHT22;34462;51.368;12.364;2022-07-10T10:53:20;19.40;99.90
15259;DHT22;34462;51.368;12.364;2022-07-10T10:56:23;19.50;99.90
15259;DHT22;34462;51.368;12.364;2022-07-10T10:58:52;19.60;99.90
15259;DHT22;34462;51.368;12.364;2022-07-10T11:01:26;19.80;99.90
15259;DHT22;34462;51.368;12.364;2022-07-10T11:04:20;19.80;99.90
15259;DHT22;34462;51.368;12.364;2022-07-10T11:06:51;19.70;99.90
15259;DHT22;34462;51.368;12.364;2022-07-10T11:09:25;19.50;99.90
15259;DHT22;34462;51.368;12.364;2022-07-10T11:12:01;19.50;99.90
15259;DHT22;34462;51.368;12.364;2022-07-10T11:14:32;19.70;99.90
15259;DHT22;34462;51.368;12.364;2022-07-10T11:17:03;19.70;99.90
15259;DHT22;34462;51.368;12.364;2022-07-10T11:19:34;19.80;99.90
15259;DHT22;34462;51.368;12.364;2022-07-10T11:22:13;20.00;99.90
15259;DHT22;34462;51.368;12.364;2022-07-10T11:25:12;20.10;99.90
15259;DHT22;34462;51.368;12.364;2022-07-10T11:28:05;20.30;99.90
15259;DHT22;34462;51.368;12.364;2022-07-10T11:30:50;20.50;99.90
15259;DHT22;34462;51.368;12.364;2022-07-10T11:33:20;20.50;99.90
15259;DHT22;34462;51.368;12.364;2022-07-10T11:35:52;20.50;99.90
15259;DHT22;34462;51.368;12.364;2022-07-10T11:38:21;20.40;99.90
15259;DHT22;34462;51.368;12.364;2022-07-10T11:40:52;20.50;99.90
15259;DHT22;34462;51.368;12.364;2022-07-10T11:43:21;20.20;99.90
15259;DHT22;34462;51.368;12.364;2022-07-10T11:45:51;20.20;99.90
15259;DHT22;34462;51.368;12.364;2022-07-10T11:48:22;20.00;99.90
15259;DHT22;34462;51.368;12.364;2022-07-10T11:50:52;19.90;99.90
15259;DHT22;34462;51.368;12.364;2022-07-10T11:53:24;19.90;99.90
15259;DHT22;34462;51.368;12.364;2022-07-10T11:55:54;19.70;99.90
15259;DHT22;34462;51.368;12.364;2022-07-10T11:58:22;19.60;99.90
15259;DHT22;34462;51.368;12.364;2022-07-10T12:00:57;19.70;99.90
15259;DHT22;34462;51.368;12.364;2022-07-10T12:03:28;19.80;99.90
15259;DHT22;34462;51.368;12.364;2022-07-10T12:06:03;19.90;99.90
15259;DHT22;34462;51.368;12.364;2022-07-10T12:08:42;20.10;99.90
15259;DHT22;34462;51.368;12.364;2022-07-10T12:11:13;20.20;99.90
15259;DHT22;34462;51.368;12.364;2022-07-10T12:13:42;20.40;99.90
15259;DHT22;34462;51.368;12.364;2022-07-10T12:16:10;20.60;99.90
15259;DHT22;34462;51.368;12.364;2022-07-10T12:18:40;20.80;99.90
15259;DHT22;34462;51.368;12.364;2022-07-10T12:21:13;21.00;99.90
15259;DHT22;34462;51.368;12.364;2022-07-10T12:23:44;21.20;99.90
15259;DHT22;34462;51.368;12.364;2022-07-10T12:26:15;21.10;99.90
15259;DHT22;34462;51.368;12.364;2022-07-10T12:28:51;21.20;99.90
15259;DHT22;34462;51.368;12.364;2022-07-10T12:31:22;20.90;99.90
15259;DHT22;34462;51.368;12.364;2022-07-10T12:33:52;20.60;99.90
15259;DHT22;34462;51.368;12.364;2022-07-10T12:36:23;20.60;99.90
15259;DHT22;34462;51.368;12.364;2022-07-10T12:38:56;20.40;99.90
15259;DHT22;34462;51.368;12.364;2022-07-10T12:41:25;20.30;99.90
15259;DHT22;34462;51.368;12.364;2022-07-10T12:43:53;20.30;99.90
15259;DHT22;34462;51.368;12.364;2022-07-10T12:46:23;20.20;99.90
15259;DHT22;34462;51.368;12.364;2022-07-10T12:49:05;20.20;99.90
15259;DHT22;34462;51.368;12.364;2022-07-10T12:51:45;20.20;99.90
15259;DHT22;34462;51.368;12.364;2022-07-10T12:54:36;20.20;99.90
15259;DHT22;34462;51.368;12.364;2022-07-10T12:57:05;20.20;99.90
15259;DHT22;34462;51.368;12.364;2022-07-10T12:59:34;20.40;99.90
15259;DHT22;34462;51.368;12.364;2022-07-10T13:02:17;20.70;99.90
15259;DHT22;34462;51.368;12.364;2022-07-10T13:04:53;20.80;99.90
15259;DHT22;34462;51.368;12.364;2022-07-10T13:07:30;20.70;99.90
15259;DHT22;34462;51.368;12.364;2022-07-10T13:10:00;20.50;99.90
15259;DHT22;34462;51.368;12.364;2022-07-10T13:12:30;20.20;99.90
15259;DHT22;34462;51.368;12.364;2022-07-10T13:14:59;20.10;99.90
15259;DHT22;34462;51.368;12.364;2022-07-10T13:17:28;20.20;99.90
15259;DHT22;34462;51.368;12.364;2022-07-10T13:19:56;20.30;99.90
15259;DHT22;34462;51.368;12.364;2022-07-10T13:22:25;20.40;99.90
15259;DHT22;34462;51.368;12.364;2022-07-10T13:24:54;20.50;99.90
15259;DHT22;34462;51.368;12.364;2022-07-10T13:27:22;20.60;99.90
15259;DHT22;34462;51.368;12.364;2022-07-10T13:29:51;20.70;99.90
15259;DHT22;34462;51.368;12.364;2022-07-10T13:32:19;20.70;99.90
15259;DHT22;34462;51.368;12.364;2022-07-10T13:34:53;20.60;99.90
15259;DHT22;34462;51.368;12.364;2022-07-10T13:37:22;20.70;99.90
15259;DHT22;34462;51.368;12.364;2022-07-10T13:39:50;20.70;99.90
15259;DHT22;34462;51.368;12.364;2022-07-10T13:42:19;20.70;99.90
15259;DHT22;34462;51.368;12.364;2022-07-10T13:44:47;20.60;99.90
15259;DHT22;34462;51.368;12.364;2022-07-10T13:47:15;20.60;99.90
15259;DHT22;34462;51.368;12.364;2022-07-10T13:49:44;20.70;99.90
15259;DHT22;34462;51.368;12.364;2022-07-10T13:52:12;21.00;99.90
15259;DHT22;34462;51.368;12.364;2022-07-10T13:54:40;21.30;99.90
15259;DHT22;34462;51.368;12.364;2022-07-10T13:57:08;21.50;99.90
15259;DHT22;34462;51.368;12.364;2022-07-10T13:59:38;21.40;99.90
15259;DHT22;34462;51.368;12.364;2022-07-10T14:02:06;21.40;99.90
15259;DHT22;34462;51.368;12.364;2022-07-10T14:04:42;21.20;99.90
15259;DHT22;34462;51.368;12.364;2022-07-10T14:07:10;21.20;99.90
15259;DHT22;34462;51.368;12.364;2022-07-10T14:09:38;21.10;99.90
15259;DHT22;34462;51.368;12.364;2022-07-10T14:12:07;21.00;99.90
15259;DHT22;34462;51.368;12.364;2022-07-10T14:14:35;20.90;99.90
15259;DHT22;34462;51.368;12.364;2022-07-10T14:17:05;20.70;99.90
15259;DHT22;34462;51.368;12.364;2022-07-10T14:19:33;20.80;99.90
15259;DHT22;34462;51.368;12.364;2022-07-10T14:22:01;20.90;99.90
15259;DHT22;34462;51.368;12.364;2022-07-10T14:24:30;21.10;99.90
15259;DHT22;34462;51.368;12.364;2022-07-10T14:27:05;21.10;99.90
15259;DHT22;34462;51.368;12.364;2022-07-10T14:29:34;21.10;99.90
15259;DHT22;34462;51.368;12.364;2022-07-10T14:32:02;21.00;99.90
15259;DHT22;34462;51.368;12.364;2022-07-10T14:34:32;20.90;99.90
15259;DHT22;34462;51.368;12.364;2022-07-10T14:37:01;20.90;99.90
15259;DHT22;34462;51.368;12.364;2022-07-10T14:39:29;20.80;99.90
15259;DHT22;34462;51.368;12.364;2022-07-10T14:41:57;20.80;99.90
15259;DHT22;34462;51.368;12.364;2022-07-10T14:44:26;20.90;99.90
15259;DHT22;34462;51.368;12.364;2022-07-10T14:46:54;21.00;99.90
15259;DHT22;34462;51.368;12.364;2022-07-10T14:49:24;21.20;99.90
15259;DHT22;34462;51.368;12.364;2022-07-10T14:51:52;21.40;99.90
15259;DHT22;34462;51.368;12.364;2022-07-10T14:54:21;21.50;99.90
15259;DHT22;34462;51.368;12.364;2022-07-10T14:56:49;21.50;99.90
15259;DHT22;34462;51.368;12.364;2022-07-10T14:59:17;21.50;99.90
15259;DHT22;34462;51.368;12.364;2022-07-10T15:01:45;21.30;99.90
15259;DHT22;34462;51.368;12.364;2022-07-10T15:04:14;21.40;99.90
15259;DHT22;34462;51.368;12.364;2022-07-10T15:06:43;21.40;99.90
15259;DHT22;34462;51.368;12.364;2022-07-10T15:09:13;21.30;99.90
15259;DHT22;34462;51.368;12.364;2022-07-10T15:11:42;21.30;99.90
15259;DHT22;34462;51.368;12.364;2022-07-10T15:14:10;21.10;99.90
15259;DHT22;34462;51.368;12.364;2022-07-10T15:16:38;21.00;99.90
15259;DHT22;34462;51.368;12.364;2022-07-10T15:19:06;21.10;99.90
15259;DHT22;34462;51.368;12.364;2022-07-10T15:21:37;21.00;99.90
15259;DHT22;34462;51.368;12.364;2022-07-10T15:24:07;20.90;99.90
15259;DHT22;34462;51.368;12.364;2022-07-10T15:26:35;20.90;99.90
15259;DHT22;34462;51.368;12.364;2022-07-10T15:29:04;21.00;99.90
15259;DHT22;34462;51.368;12.364;2022-07-10T15:31:32;21.10;99.90
15259;DHT22;34462;51.368;12.364;2022-07-10T15:34:07;21.10;99.90